createdAt,value
2022-12-27T00:00:25.926Z,7.43
2022-12-27T00:02:52.685Z,5.43
2022-12-27T00:05:19.395Z,6.20
2022-12-27T00:07:46.098Z,7.90
2022-12-27T00:10:13.145Z,6.10
2022-12-27T00:12:40.003Z,7.40
2022-12-27T00:15:09.916Z,7.17
2022-12-27T00:17:36.658Z,3.37
2022-12-27T00:20:11.062Z,5.73
2022-12-27T00:22:39.105Z,7.33
2022-12-27T00:25:06.169Z,6.90
2022-12-27T00:27:32.820Z,6.37
2022-12-27T00:29:59.451Z,5.57
2022-12-27T00:32:26.105Z,3.50
2022-12-27T00:34:52.910Z,3.60
2022-12-27T00:37:19.572Z,8.00
2022-12-27T00:39:46.867Z,7.67
2022-12-27T00:42:13.619Z,6.27
2022-12-27T00:44:40.265Z,6.97
2022-12-27T00:47:06.891Z,6.47
2022-12-27T00:49:33.691Z,4.53
2022-12-27T00:52:00.260Z,6.00
2022-12-27T00:54:27.078Z,3.27
2022-12-27T00:56:53.749Z,6.13
2022-12-27T00:59:20.398Z,5.83
2022-12-27T01:01:47.105Z,4.70
2022-12-27T01:04:14.919Z,3.67
2022-12-27T01:06:41.967Z,4.00
2022-12-27T01:09:09.678Z,5.27
2022-12-27T01:11:36.335Z,5.90
2022-12-27T01:14:04.939Z,5.23
2022-12-27T01:16:33.270Z,5.53
2022-12-27T01:19:00.166Z,6.67
2022-12-27T01:21:39.219Z,5.97
2022-12-27T01:24:07.302Z,4.73
2022-12-27T01:26:33.953Z,5.57
2022-12-27T01:29:00.659Z,5.03
2022-12-27T01:31:28.899Z,6.87
2022-12-27T01:33:58.181Z,4.03
2022-12-27T01:36:26.371Z,5.93
2022-12-27T01:38:53.499Z,8.03
2022-12-27T01:41:45.596Z,6.23
2022-12-27T01:44:44.028Z,6.00
2022-12-27T01:47:16.426Z,4.10
2022-12-27T01:49:53.393Z,8.60
2022-12-27T01:52:23.838Z,3.87
2022-12-27T01:54:51.894Z,6.63
2022-12-27T01:57:18.639Z,5.20
2022-12-27T01:59:48.745Z,3.77
2022-12-27T02:02:15.766Z,4.30
2022-12-27T02:04:43.766Z,5.20
2022-12-27T02:07:10.471Z,4.33
2022-12-27T02:09:43.940Z,3.23
2022-12-27T02:12:11.487Z,7.83
2022-12-27T02:14:48.060Z,5.00
2022-12-27T02:17:29.614Z,5.87
2022-12-27T02:20:14.339Z,8.17
2022-12-27T02:23:31.349Z,4.73
2022-12-27T02:26:20.234Z,7.67
2022-12-27T02:29:14.482Z,9.30
2022-12-27T02:31:47.321Z,6.57
2022-12-27T02:34:26.271Z,7.70
2022-12-27T02:37:00.981Z,7.23
2022-12-27T02:39:30.629Z,6.43
2022-12-27T02:42:18.878Z,8.53
2022-12-27T02:45:18.417Z,7.47
2022-12-27T02:48:05.789Z,6.93
2022-12-27T02:51:16.782Z,3.43
2022-12-27T02:54:10.553Z,7.00
2022-12-27T02:57:08.524Z,2.73
2022-12-27T03:00:05.295Z,7.97
2022-12-27T03:03:09.570Z,8.67
2022-12-27T03:05:42.745Z,10.30
2022-12-27T03:08:24.747Z,5.53
2022-12-27T03:11:19.689Z,9.63
2022-12-27T03:14:15.957Z,7.20
2022-12-27T03:16:55.658Z,6.73
2022-12-27T03:19:46.720Z,11.93
2022-12-27T03:22:35.081Z,5.13
2022-12-27T03:25:22.751Z,11.13
2022-12-27T03:28:10.967Z,10.93
2022-12-27T03:30:58.128Z,5.67
2022-12-27T03:33:27.773Z,5.27
2022-12-27T03:36:16.085Z,8.07
2022-12-27T03:39:35.703Z,6.83
2022-12-27T03:42:33.199Z,7.33
2022-12-27T03:45:01.307Z,6.70
2022-12-27T03:47:44.376Z,6.83
2022-12-27T03:50:28.503Z,6.83
2022-12-27T03:53:09.956Z,7.40
2022-12-27T03:55:38.629Z,8.67
2022-12-27T03:58:07.485Z,7.73
2022-12-27T04:00:34.216Z,5.53
2022-12-27T04:03:01.244Z,11.50
2022-12-27T04:05:27.943Z,5.47
2022-12-27T04:08:13.198Z,8.60
2022-12-27T04:10:58.659Z,6.83
2022-12-27T04:13:44.134Z,7.87
2022-12-27T04:16:29.595Z,13.30
2022-12-27T04:19:15.089Z,9.67
2022-12-27T04:22:02.713Z,10.10
2022-12-27T04:24:48.423Z,10.60
2022-12-27T04:27:33.779Z,9.90
2022-12-27T04:30:19.223Z,10.30
2022-12-27T04:33:04.566Z,7.57
2022-12-27T04:35:31.483Z,9.03
2022-12-27T04:37:58.018Z,11.23
2022-12-27T04:40:43.916Z,11.13
2022-12-27T04:43:29.327Z,7.53
2022-12-27T04:46:15.047Z,8.80
2022-12-27T04:49:00.551Z,7.77
2022-12-27T04:51:46.042Z,6.50
2022-12-27T04:54:40.485Z,6.70
2022-12-27T04:57:07.795Z,9.23
2022-12-27T04:59:53.446Z,7.17
2022-12-27T05:02:21.022Z,9.83
2022-12-27T05:04:48.617Z,7.30
2022-12-27T05:07:35.436Z,6.80
2022-12-27T05:10:23.108Z,5.60
2022-12-27T05:13:09.009Z,5.83
2022-12-27T05:15:35.889Z,6.10
2022-12-27T05:18:02.599Z,6.03
2022-12-27T05:20:29.427Z,7.77
2022-12-27T05:23:14.935Z,7.03
2022-12-27T05:25:43.496Z,6.80
2022-12-27T05:28:12.569Z,7.63
2022-12-27T05:30:42.714Z,6.90
2022-12-27T05:33:12.630Z,8.93
2022-12-27T05:35:40.038Z,7.70
2022-12-27T05:38:06.771Z,10.37
2022-12-27T05:40:34.731Z,9.43
2022-12-27T05:43:03.362Z,8.13
2022-12-27T05:45:31.657Z,11.93
2022-12-27T05:47:59.752Z,9.50
2022-12-27T05:50:26.996Z,7.20
2022-12-27T05:52:54.041Z,10.10
2022-12-27T05:55:20.749Z,10.80
2022-12-27T05:57:48.397Z,9.73
2022-12-27T06:00:21.283Z,11.37
2022-12-27T06:02:48.068Z,7.07
2022-12-27T06:05:14.824Z,5.47
2022-12-27T06:07:41.836Z,11.80
2022-12-27T06:10:10.062Z,9.53
2022-12-27T06:12:37.145Z,8.77
2022-12-27T06:15:05.724Z,8.57
2022-12-27T06:17:32.960Z,7.20
2022-12-27T06:19:59.681Z,8.27
2022-12-27T06:22:26.434Z,7.77
2022-12-27T06:24:53.190Z,11.70
2022-12-27T06:27:19.918Z,9.70
2022-12-27T06:29:46.764Z,10.80
2022-12-27T06:32:13.530Z,9.60
2022-12-27T06:34:40.296Z,13.53
2022-12-27T06:37:06.993Z,7.00
2022-12-27T06:39:33.779Z,9.97
2022-12-27T06:42:00.434Z,9.03
2022-12-27T06:44:27.280Z,7.40
2022-12-27T06:46:53.943Z,4.60
2022-12-27T06:49:20.715Z,6.47
2022-12-27T06:51:52.577Z,10.07
2022-12-27T06:54:22.585Z,9.40
2022-12-27T06:56:49.723Z,8.63
2022-12-27T06:59:16.536Z,10.87
2022-12-27T07:01:43.524Z,9.80
2022-12-27T07:04:10.622Z,8.03
2022-12-27T07:06:37.814Z,9.40
2022-12-27T07:09:04.645Z,9.30
2022-12-27T07:11:35.855Z,10.23
2022-12-27T07:14:03.751Z,8.20
2022-12-27T07:16:31.039Z,7.10
2022-12-27T07:18:59.149Z,6.33
2022-12-27T07:21:27.652Z,7.63
2022-12-27T07:23:54.699Z,3.83
2022-12-27T07:26:24.018Z,6.43
2022-12-27T07:28:54.009Z,6.20
2022-12-27T07:31:26.675Z,6.77
2022-12-27T07:33:53.805Z,6.30
2022-12-27T07:36:23.986Z,6.00
2022-12-27T07:38:50.735Z,6.30
2022-12-27T07:41:17.878Z,5.43
2022-12-27T07:43:45.188Z,9.37
2022-12-27T07:46:14.660Z,6.87
2022-12-27T07:48:42.059Z,4.37
2022-12-27T07:51:09.689Z,5.57
2022-12-27T07:53:36.853Z,7.93
2022-12-27T07:56:20.175Z,6.83
2022-12-27T07:58:51.241Z,6.37
2022-12-27T08:01:21.100Z,7.83
2022-12-27T08:03:48.113Z,5.97
2022-12-27T08:06:31.180Z,8.87
2022-12-27T08:08:59.741Z,7.93
2022-12-27T08:11:26.678Z,7.57
2022-12-27T08:13:53.648Z,9.13
2022-12-27T08:16:25.687Z,6.60
2022-12-27T08:18:56.265Z,4.67
2022-12-27T08:21:23.823Z,4.63
2022-12-27T08:23:50.823Z,9.43
2022-12-27T08:26:17.532Z,6.47
2022-12-27T08:28:48.190Z,8.40
2022-12-27T08:31:15.583Z,12.70
2022-12-27T08:33:42.356Z,12.50
2022-12-27T08:39:00.337Z,10.30
2022-12-27T08:41:27.102Z,8.20
2022-12-27T08:43:54.025Z,27.97
2022-12-27T08:46:21.219Z,32.50
2022-12-27T08:48:48.890Z,17.33
2022-12-27T08:51:24.806Z,23.17
2022-12-27T08:53:58.344Z,13.73
2022-12-27T08:56:25.343Z,6.13
2022-12-27T08:58:52.129Z,7.47
2022-12-27T09:01:19.044Z,8.40
2022-12-27T09:03:45.873Z,5.07
2022-12-27T09:06:15.700Z,8.43
2022-12-27T09:08:43.846Z,5.60
2022-12-27T09:11:16.475Z,7.23
2022-12-27T09:13:43.771Z,7.07
2022-12-27T09:16:13.606Z,9.57
2022-12-27T09:18:41.913Z,5.50
2022-12-27T09:21:11.565Z,10.40
2022-12-27T09:23:38.969Z,10.98
2022-12-27T09:26:15.308Z,6.43
2022-12-27T09:28:42.773Z,6.05
2022-12-27T09:31:11.373Z,4.40
2022-12-27T09:33:39.059Z,8.02
2022-12-27T09:36:18.525Z,10.43
2022-12-27T09:38:46.119Z,5.38
2022-12-27T09:42:44.437Z,6.40
2022-12-27T09:44:52.499Z,4.00
2022-12-27T09:47:25.253Z,4.63
2022-12-27T09:50:06.139Z,5.13
2022-12-27T09:53:00.179Z,7.43
2022-12-27T09:55:36.885Z,3.33
2022-12-27T09:58:16.139Z,5.10
2022-12-27T10:00:46.429Z,6.93
2022-12-27T10:03:13.597Z,3.83
2022-12-27T10:05:46.014Z,6.60
2022-12-27T10:08:39.443Z,5.20
2022-12-27T10:11:36.316Z,4.45
2022-12-27T10:14:16.394Z,6.03
2022-12-27T10:16:54.050Z,4.90
2022-12-27T10:19:43.568Z,5.07
2022-12-27T10:22:13.392Z,5.35
2022-12-27T10:24:50.520Z,4.85
2022-12-27T10:27:24.499Z,4.80
2022-12-27T10:29:57.225Z,7.38
2022-12-27T10:32:24.026Z,5.95
2022-12-27T10:35:01.257Z,9.43
2022-12-27T10:37:28.502Z,6.43
2022-12-27T10:40:14.139Z,5.45
2022-12-27T10:43:02.906Z,4.85
2022-12-27T10:45:40.096Z,7.03
2022-12-27T10:48:24.222Z,6.43
2022-12-27T10:50:59.404Z,7.63
2022-12-27T10:53:30.800Z,8.73
2022-12-27T10:56:31.262Z,8.48
2022-12-27T10:59:21.510Z,8.07
2022-12-27T11:02:18.849Z,11.50
2022-12-27T11:05:00.522Z,7.00
2022-12-27T11:07:32.985Z,6.43
2022-12-27T11:10:15.980Z,6.47
2022-12-27T11:13:03.000Z,5.88
2022-12-27T11:15:37.933Z,9.50
2022-12-27T11:18:12.054Z,44.03
2022-12-27T11:20:54.041Z,15.05
2022-12-27T11:23:24.015Z,13.65
2022-12-27T11:25:55.474Z,8.80
2022-12-27T11:28:40.213Z,9.48
2022-12-27T11:31:14.071Z,6.32
2022-12-27T11:33:59.741Z,9.35
2022-12-27T11:36:40.903Z,4.90
2022-12-27T11:39:28.396Z,7.13
2022-12-27T11:41:56.899Z,7.25
2022-12-27T11:44:38.190Z,9.77
2022-12-27T11:47:26.833Z,4.38
2022-12-27T11:50:01.166Z,7.72
2022-12-27T11:52:58.472Z,10.90
2022-12-27T11:55:40.068Z,10.82
2022-12-27T11:58:20.569Z,6.60
2022-12-27T12:01:09.022Z,12.70
2022-12-27T12:03:49.276Z,11.82
2022-12-27T12:06:21.036Z,6.38
2022-12-27T12:09:20.851Z,9.35
2022-12-27T12:11:54.889Z,11.73
2022-12-27T12:14:40.344Z,10.68
2022-12-27T12:17:40.717Z,7.32
2022-12-27T12:20:19.399Z,6.18
2022-12-27T12:23:13.286Z,9.85
2022-12-27T12:26:10.754Z,5.38
2022-12-27T12:29:14.368Z,6.80
2022-12-27T12:32:02.318Z,8.88
2022-12-27T12:34:31.753Z,3.85
2022-12-27T12:37:16.603Z,6.85
2022-12-27T12:40:17.889Z,7.53
2022-12-27T12:43:20.046Z,9.68
2022-12-27T12:45:57.773Z,9.10
2022-12-27T12:48:55.433Z,5.18
2022-12-27T12:51:43.079Z,10.80
2022-12-27T12:54:36.707Z,6.70
2022-12-27T12:57:16.757Z,7.28
2022-12-27T13:00:12.675Z,9.02
2022-12-27T13:03:24.283Z,13.73
2022-12-27T13:06:01.442Z,10.90
2022-12-27T13:11:21.574Z,9.55
2022-12-27T13:14:04.610Z,9.23
2022-12-27T13:17:06.748Z,9.30
2022-12-27T13:20:11.060Z,10.75
2022-12-27T13:23:01.020Z,8.35
2022-12-27T13:25:51.069Z,9.55
2022-12-27T13:28:39.602Z,10.52
2022-12-27T13:31:35.396Z,6.68
2022-12-27T13:34:33.903Z,8.55
2022-12-27T13:37:19.095Z,5.72
2022-12-27T13:39:57.881Z,28.58
2022-12-27T13:42:59.267Z,10.43
2022-12-27T13:45:54.903Z,8.52
2022-12-27T13:48:47.935Z,8.35
2022-12-27T13:51:40.888Z,6.03
2022-12-27T13:54:49.546Z,8.55
2022-12-27T13:57:43.485Z,7.78
2022-12-27T14:00:17.219Z,10.15
2022-12-27T14:03:09.591Z,13.88
2022-12-27T14:06:05.994Z,9.55
2022-12-27T14:08:41.569Z,6.93
2022-12-27T14:11:44.011Z,8.70
2022-12-27T14:14:14.858Z,8.20
2022-12-27T14:17:10.446Z,9.48
2022-12-27T14:20:01.838Z,9.68
2022-12-27T14:23:05.194Z,7.50
2022-12-27T14:25:51.843Z,8.15
2022-12-27T14:28:47.388Z,11.95
2022-12-27T14:31:41.441Z,5.82
2022-12-27T14:34:43.854Z,9.45
2022-12-27T14:37:22.429Z,18.80
2022-12-27T14:40:35.131Z,9.95
2022-12-27T14:43:40.537Z,9.80
2022-12-27T14:46:45.045Z,15.65
2022-12-27T14:49:49.404Z,13.50
2022-12-27T14:52:40.573Z,7.60
2022-12-27T14:55:23.169Z,13.45
2022-12-27T14:58:14.572Z,13.20
2022-12-27T15:01:14.020Z,16.00
2022-12-27T15:04:04.758Z,12.50
2022-12-27T15:06:52.914Z,8.05
2022-12-27T15:09:38.537Z,8.05
2022-12-27T15:12:11.890Z,8.05
2022-12-27T15:15:02.875Z,6.63
2022-12-27T15:17:54.508Z,11.43
2022-12-27T15:20:44.918Z,18.25
2022-12-27T15:23:49.525Z,8.73
2022-12-27T15:27:00.825Z,22.45
2022-12-27T15:30:11.163Z,9.35
2022-12-27T15:32:53.000Z,11.57
2022-12-27T15:35:56.856Z,16.55
2022-12-27T15:38:46.185Z,21.08
2022-12-27T15:41:39.176Z,9.38
2022-12-27T15:44:35.731Z,17.33
2022-12-27T15:48:08.285Z,11.00
2022-12-27T15:50:46.915Z,9.13
2022-12-27T15:53:33.111Z,12.47
2022-12-27T15:56:38.551Z,15.20
2022-12-27T15:59:43.275Z,14.43
2022-12-27T16:03:09.102Z,31.00
2022-12-27T16:05:49.335Z,56.33
2022-12-27T16:08:25.936Z,20.77
2022-12-27T16:10:53.537Z,22.73
2022-12-27T16:13:34.445Z,19.43
2022-12-27T16:16:09.582Z,21.20
2022-12-27T16:18:52.789Z,17.45
2022-12-27T16:21:23.092Z,8.15
2022-12-27T16:24:05.537Z,15.63
2022-12-27T16:26:34.865Z,8.35
2022-12-27T16:29:07.868Z,17.23
2022-12-27T16:31:41.892Z,15.27
2022-12-27T16:34:20.943Z,17.77
2022-12-27T16:36:49.066Z,20.03
2022-12-27T16:39:52.656Z,17.00
2022-12-27T16:42:29.076Z,29.50
2022-12-27T16:45:23.449Z,17.97
2022-12-27T16:48:07.785Z,17.75
2022-12-27T16:50:55.866Z,20.37
2022-12-27T16:53:41.673Z,16.43
2022-12-27T16:56:33.335Z,19.30
2022-12-27T16:59:00.164Z,16.90
2022-12-27T17:01:35.987Z,25.13
2022-12-27T17:04:03.548Z,19.50
2022-12-27T17:06:32.398Z,18.87
2022-12-27T17:09:09.297Z,18.10
2022-12-27T17:11:40.427Z,33.87
2022-12-27T17:14:18.726Z,18.77
2022-12-27T17:16:53.389Z,21.33
2022-12-27T17:19:53.832Z,21.03
2022-12-27T17:22:21.482Z,20.42
2022-12-27T17:24:48.760Z,21.53
2022-12-27T17:27:33.864Z,35.88
2022-12-27T17:30:20.649Z,22.77
2022-12-27T17:33:14.041Z,19.00
2022-12-27T17:36:22.824Z,21.60
2022-12-27T17:39:12.128Z,18.88
2022-12-27T17:42:13.072Z,32.97
2022-12-27T17:45:03.172Z,30.97
2022-12-27T17:47:53.850Z,20.45
2022-12-27T17:50:24.379Z,18.43
2022-12-27T17:53:30.214Z,24.33
2022-12-27T17:56:31.606Z,23.10
2022-12-27T17:59:23.943Z,25.63
2022-12-27T18:01:59.264Z,28.73
2022-12-27T18:04:38.426Z,21.63
2022-12-27T18:07:08.524Z,23.83
2022-12-27T18:09:47.997Z,24.48
2022-12-27T18:12:34.624Z,26.90
2022-12-27T18:15:03.312Z,25.27
2022-12-27T18:17:36.288Z,24.33
2022-12-27T18:20:31.052Z,23.38
2022-12-27T18:23:00.852Z,25.63
2022-12-27T18:25:37.431Z,22.58
2022-12-27T18:28:28.677Z,29.33
2022-12-27T18:31:17.660Z,21.20
2022-12-27T18:33:57.776Z,24.42
2022-12-27T18:36:34.011Z,29.50
2022-12-27T18:39:04.545Z,30.43
2022-12-27T18:41:42.955Z,25.67
2022-12-27T18:44:21.456Z,26.20
2022-12-27T18:46:55.292Z,38.17
2022-12-27T18:49:33.729Z,30.97
2022-12-27T18:52:02.188Z,37.90
2022-12-27T18:54:29.415Z,40.60
2022-12-27T18:56:57.685Z,37.03
2022-12-27T18:59:32.185Z,26.90
2022-12-27T19:02:35.468Z,26.80
2022-12-27T19:05:22.338Z,24.63
2022-12-27T19:08:10.115Z,22.23
2022-12-27T19:10:38.147Z,27.73
2022-12-27T19:13:05.294Z,26.73
2022-12-27T19:15:45.824Z,28.87
2022-12-27T19:18:29.408Z,25.60
2022-12-27T19:21:03.272Z,27.27
2022-12-27T19:23:33.788Z,27.77
2022-12-27T19:26:06.358Z,27.77
2022-12-27T19:28:34.293Z,27.67
2022-12-27T19:31:18.936Z,28.73
2022-12-27T19:34:00.278Z,35.80
2022-12-27T19:36:31.536Z,26.43
2022-12-27T19:38:59.175Z,27.77
2022-12-27T19:41:27.155Z,25.60
2022-12-27T19:43:54.420Z,28.70
2022-12-27T19:46:28.507Z,30.97
2022-12-27T19:51:44.400Z,31.73
2022-12-27T19:54:15.957Z,30.90
2022-12-27T19:56:42.920Z,22.27
2022-12-27T19:59:23.132Z,27.00
2022-12-27T20:01:52.873Z,24.00
2022-12-27T20:04:20.102Z,34.40
2022-12-27T20:06:48.771Z,23.60
2022-12-27T20:09:19.812Z,25.88
2022-12-27T20:11:48.733Z,29.17
2022-12-27T20:14:18.626Z,20.45
2022-12-27T20:16:46.920Z,20.02
2022-12-27T20:19:21.264Z,23.40
2022-12-27T20:21:47.868Z,23.33
2022-12-27T20:24:14.834Z,18.65
2022-12-27T20:26:42.650Z,16.13
2022-12-27T20:29:11.315Z,17.65
2022-12-27T20:31:44.502Z,17.30
2022-12-27T20:34:12.798Z,20.95
2022-12-27T20:36:39.436Z,17.38
2022-12-27T20:39:07.547Z,17.15
2022-12-27T20:41:34.302Z,19.52
2022-12-27T20:44:01.270Z,17.45
2022-12-27T20:46:28.262Z,14.45
2022-12-27T20:48:55.842Z,17.02
2022-12-27T20:51:24.911Z,17.80
2022-12-27T20:53:59.439Z,15.43
2022-12-27T20:56:26.299Z,17.02
2022-12-27T20:58:53.387Z,17.42
2022-12-27T21:01:22.556Z,18.70
2022-12-27T21:03:49.693Z,14.07
2022-12-27T21:06:18.963Z,20.15
2022-12-27T21:08:52.167Z,19.92
2022-12-27T21:11:26.764Z,19.58
2022-12-27T21:13:53.378Z,17.38
2022-12-27T21:16:22.914Z,17.50
2022-12-27T21:18:50.024Z,20.20
2022-12-27T21:21:19.880Z,17.60
2022-12-27T21:23:47.609Z,15.88
2022-12-27T21:26:23.401Z,15.05
2022-12-27T21:28:50.657Z,16.20
2022-12-27T21:31:18.558Z,15.23
2022-12-27T21:33:45.647Z,15.63
2022-12-27T21:36:15.749Z,13.52
2022-12-27T21:38:42.491Z,12.85
2022-12-27T21:41:14.410Z,14.32
2022-12-27T21:43:41.389Z,19.85
2022-12-27T21:49:02.787Z,12.40
2022-12-27T21:51:31.590Z,15.85
2022-12-27T21:53:58.514Z,13.45
2022-12-27T21:56:26.711Z,19.83
2022-12-27T21:58:55.649Z,12.25
2022-12-27T22:01:27.923Z,13.23
2022-12-27T22:03:56.096Z,12.40
2022-12-27T22:06:28.202Z,13.60
2022-12-27T22:08:57.941Z,15.05
2022-12-27T22:11:25.497Z,12.93
2022-12-27T22:13:52.417Z,12.35
2022-12-27T22:16:31.115Z,11.77
2022-12-27T22:18:57.867Z,11.80
2022-12-27T22:21:27.247Z,13.05
2022-12-27T22:23:55.628Z,12.98
2022-12-27T22:26:25.242Z,12.55
2022-12-27T22:28:52.284Z,10.77
2022-12-27T22:31:22.146Z,10.25
2022-12-27T22:33:50.068Z,12.73
2022-12-27T22:36:20.096Z,9.65
2022-12-27T22:38:49.618Z,7.72
2022-12-27T22:41:31.657Z,9.30
2022-12-27T22:44:00.709Z,7.97
2022-12-27T22:46:39.314Z,8.73
2022-12-27T22:49:16.097Z,9.00
2022-12-27T22:51:43.252Z,10.60
2022-12-27T22:54:10.032Z,8.88
2022-12-27T22:56:39.681Z,7.68
2022-12-27T22:59:07.847Z,6.07
2022-12-27T23:01:35.089Z,8.77
2022-12-27T23:04:04.322Z,10.52
2022-12-27T23:06:32.830Z,7.32
2022-12-27T23:09:01.177Z,7.45
2022-12-27T23:11:30.865Z,6.38
2022-12-27T23:14:01.034Z,6.68
2022-12-27T23:16:28.398Z,8.55
2022-12-27T23:18:55.133Z,7.53
2022-12-27T23:21:24.683Z,8.10
2022-12-27T23:23:52.437Z,11.82
2022-12-27T23:26:22.100Z,7.80
2022-12-27T23:28:50.363Z,8.73
2022-12-27T23:31:18.086Z,6.78
2022-12-27T23:33:44.996Z,6.53
2022-12-27T23:36:12.979Z,5.38
2022-12-27T23:38:41.379Z,4.93
2022-12-27T23:41:10.601Z,8.73
2022-12-27T23:43:52.144Z,7.00
2022-12-27T23:46:27.732Z,4.57
2022-12-27T23:48:55.306Z,7.88
2022-12-27T23:51:22.309Z,9.05
2022-12-27T23:53:49.676Z,4.57
2022-12-27T23:56:22.418Z,5.97
2022-12-27T23:58:51.414Z,6.90
